Floresta da Tijuca, Brazil
Current Conditions -  °F | °C
As of 11:00 AM on Friday 28 Nov 2014 (Local Time) from SBRJ Reporting Station
Broken Clouds Broken Clouds  
Wind Chill: 79°   Ceiling: 1200
Heat Index: 81°   Visibility: 5mi
Dew Point: 70°   Wind: 9mph
Humidity: 74%   Direction: 200°SSW
Pressure: 29.97"   Gusts: NA
Location:  22.9°S, 43.21°W
Report Text: SBRJ 281300Z 20008KT 8000 FEW005 BKN012 BKN080 26/21 Q1015
Loading
Personal Weather Stations






























Interactive Weather Map New forecast layout! Learn more

10-Day Weather Forecast

Advertisements
Track Severe Weather on mobile